La Jolla, California
Current Conditions -  °F | °C
As of 1:55 AM on Sunday 23 Nov 2014 (Local Time) from KNKX Reporting Station
Scattered Clouds Scattered Clouds  
Wind Chill: 55°   Ceiling: Unl
Heat Index: 55°   Visibility: 10mi
Dew Point: 51°   Wind: 6mph
Humidity: 86%   Direction: 60°ENE
Pressure: 30.04"   Gusts: NA
Location:  32.84°N, 117.27°W
Report Text: KNKX 230955Z 06005KT 10SM SCT012 13/11 A3004 RMK AO2 SLP166 T01280106 $
Loading
Personal Weather Stations






























Interactive Weather Map New forecast layout! Learn more

10-Day Weather Forecast

Advertisements
Track Severe Weather on mobile